createdAt,value
2016-09-30T00:00:12.424Z,14.97
2016-09-30T00:01:12.623Z,14.93
2016-09-30T00:02:12.420Z,14.95
2016-09-30T00:03:12.513Z,14.95
2016-09-30T00:04:12.553Z,14.9
2016-09-30T00:05:12.431Z,14.9
2016-09-30T00:06:12.460Z,14.95
2016-09-30T00:07:12.433Z,14.94
2016-09-30T00:08:12.437Z,14.87
2016-09-30T00:09:12.429Z,14.86
2016-09-30T00:10:12.462Z,14.98
2016-09-30T00:11:12.481Z,14.82
2016-09-30T00:12:12.414Z,14.95
2016-09-30T00:13:12.550Z,14.87
2016-09-30T00:14:12.523Z,14.94
2016-09-30T00:15:12.532Z,15.01
2016-09-30T00:16:12.457Z,14.93
2016-09-30T00:17:12.428Z,15.02
2016-09-30T00:18:12.414Z,14.95
2016-09-30T00:19:12.548Z,14.95
2016-09-30T00:20:12.678Z,14.97
2016-09-30T00:21:12.473Z,14.93
2016-09-30T00:22:12.561Z,14.87
2016-09-30T00:23:12.522Z,14.98
2016-09-30T00:24:12.548Z,14.89
2016-09-30T00:25:12.431Z,14.89
2016-09-30T00:26:12.503Z,14.79
2016-09-30T00:27:12.558Z,14.86
2016-09-30T00:28:12.481Z,14.83
2016-09-30T00:29:12.570Z,14.8
2016-09-30T00:30:12.482Z,14.77
2016-09-30T00:31:12.507Z,14.86
2016-09-30T00:32:12.470Z,14.93
2016-09-30T00:33:12.499Z,14.79
2016-09-30T00:34:12.583Z,14.83
2016-09-30T00:35:12.575Z,14.83
2016-09-30T00:36:12.634Z,14.87
2016-09-30T00:37:12.579Z,14.83
2016-09-30T00:38:12.549Z,14.86
2016-09-30T00:39:12.596Z,14.74
2016-09-30T00:40:12.603Z,14.85
2016-09-30T00:41:12.638Z,14.8
2016-09-30T00:42:12.532Z,14.74
2016-09-30T00:43:12.467Z,14.74
2016-09-30T00:44:12.809Z,14.75
2016-09-30T00:45:12.541Z,14.83
2016-09-30T00:46:12.541Z,14.82
2016-09-30T00:47:12.553Z,14.74
2016-09-30T00:48:12.625Z,14.79
2016-09-30T00:49:12.553Z,14.79
2016-09-30T00:50:12.626Z,14.77
2016-09-30T00:51:12.604Z,14.75
2016-09-30T00:52:12.620Z,14.7
2016-09-30T00:53:12.558Z,14.7
2016-09-30T00:54:12.632Z,14.71
2016-09-30T00:55:12.572Z,14.64
2016-09-30T00:56:12.534Z,14.69
2016-09-30T00:57:12.593Z,14.66
2016-09-30T00:58:12.661Z,14.7
2016-09-30T00:59:12.657Z,14.63
2016-09-30T01:00:12.631Z,14.69
2016-09-30T01:01:12.614Z,14.71
2016-09-30T01:02:12.591Z,14.61
2016-09-30T01:03:12.537Z,14.7
2016-09-30T01:04:12.666Z,14.77
2016-09-30T01:05:12.675Z,14.69
2016-09-30T01:06:12.633Z,14.75
2016-09-30T01:07:12.614Z,14.71
2016-09-30T01:08:12.747Z,14.7
2016-09-30T01:09:12.601Z,14.74
2016-09-30T01:10:12.562Z,14.74
2016-09-30T01:11:12.684Z,14.75
2016-09-30T01:12:12.687Z,14.8
2016-09-30T01:13:12.671Z,14.79
2016-09-30T01:14:12.569Z,14.85
2016-09-30T01:15:12.648Z,14.82
2016-09-30T01:16:12.535Z,14.8
2016-09-30T01:17:12.714Z,14.85
2016-09-30T01:18:12.703Z,14.8
2016-09-30T01:19:12.596Z,14.8
2016-09-30T01:20:12.737Z,14.86
2016-09-30T01:21:12.642Z,14.85
2016-09-30T01:22:12.637Z,14.71
2016-09-30T01:23:12.652Z,14.83
2016-09-30T01:24:12.852Z,14.87
2016-09-30T01:25:12.689Z,14.82
2016-09-30T01:26:12.723Z,14.75
2016-09-30T01:27:12.572Z,14.87
2016-09-30T01:28:12.673Z,14.77
2016-09-30T01:29:12.758Z,14.74
2016-09-30T01:30:12.672Z,14.8
2016-09-30T01:31:12.739Z,14.79
2016-09-30T01:32:12.752Z,14.75
2016-09-30T01:33:12.747Z,14.71
2016-09-30T01:34:12.639Z,14.79
2016-09-30T01:35:12.708Z,14.66
2016-09-30T01:36:12.763Z,14.75
2016-09-30T01:37:12.672Z,14.69
2016-09-30T01:38:12.757Z,14.7
2016-09-30T01:39:12.675Z,14.8
2016-09-30T01:40:12.899Z,14.71
2016-09-30T01:41:12.646Z,14.71
2016-09-30T01:42:12.762Z,14.82
2016-09-30T01:43:12.770Z,14.71
2016-09-30T01:44:12.669Z,14.7
2016-09-30T01:45:12.759Z,14.75
2016-09-30T01:46:12.728Z,14.79
2016-09-30T01:47:12.682Z,14.75
2016-09-30T01:48:12.766Z,14.75
2016-09-30T01:49:12.683Z,14.7
2016-09-30T01:50:12.715Z,14.71
2016-09-30T01:51:12.776Z,14.71
2016-09-30T01:52:12.713Z,14.67
2016-09-30T01:53:12.792Z,14.61
2016-09-30T01:54:12.731Z,14.75
2016-09-30T01:55:12.736Z,14.74
2016-09-30T01:56:13.104Z,14.69
2016-09-30T01:57:12.810Z,14.67
2016-09-30T01:58:12.692Z,14.66
2016-09-30T01:59:12.769Z,14.69
2016-09-30T02:00:12.794Z,14.69
2016-09-30T02:01:12.778Z,14.64
2016-09-30T02:02:12.851Z,14.7
2016-09-30T02:03:12.769Z,14.75
2016-09-30T02:04:12.725Z,14.69
2016-09-30T02:05:12.972Z,14.7
2016-09-30T02:06:12.767Z,14.71
2016-09-30T02:07:12.906Z,14.7
2016-09-30T02:08:12.805Z,14.66
2016-09-30T02:09:12.809Z,14.66
2016-09-30T02:10:12.801Z,14.67
2016-09-30T02:11:12.765Z,14.7
2016-09-30T02:12:12.935Z,14.64
2016-09-30T02:13:12.851Z,14.67
2016-09-30T02:14:12.780Z,14.74
2016-09-30T02:15:12.817Z,14.63
2016-09-30T02:16:12.891Z,14.69
2016-09-30T02:17:12.828Z,14.7
2016-09-30T02:18:12.880Z,14.69
2016-09-30T02:19:12.890Z,14.66
2016-09-30T02:20:12.890Z,14.61
2016-09-30T02:21:12.894Z,14.6
2016-09-30T02:22:12.822Z,14.6
2016-09-30T02:23:12.834Z,14.67
2016-09-30T02:24:12.851Z,14.59
2016-09-30T02:25:12.804Z,14.63
2016-09-30T02:26:12.828Z,14.67
2016-09-30T02:27:12.821Z,14.59
2016-09-30T02:28:12.996Z,14.61
2016-09-30T02:29:12.840Z,14.66
2016-09-30T02:30:12.795Z,14.61
2016-09-30T02:31:12.912Z,14.7
2016-09-30T02:32:12.780Z,14.59
2016-09-30T02:33:12.869Z,14.66
2016-09-30T02:34:12.833Z,14.59
2016-09-30T02:35:12.806Z,14.67
2016-09-30T02:36:12.883Z,14.56
2016-09-30T02:37:12.803Z,14.66
2016-09-30T02:38:12.878Z,14.7
2016-09-30T02:39:12.813Z,14.61
2016-09-30T02:40:12.932Z,14.6
2016-09-30T02:41:12.945Z,14.57
2016-09-30T02:42:12.860Z,14.59
2016-09-30T02:43:12.865Z,14.67
2016-09-30T02:44:13.070Z,14.69
2016-09-30T02:45:12.948Z,14.75
2016-09-30T02:46:12.877Z,14.61
2016-09-30T02:47:12.888Z,14.74
2016-09-30T02:48:12.896Z,14.69
2016-09-30T02:49:12.907Z,14.74
2016-09-30T02:50:12.819Z,14.7
2016-09-30T02:51:12.977Z,14.67
2016-09-30T02:52:12.910Z,14.66
2016-09-30T02:53:12.904Z,14.69
2016-09-30T02:54:12.983Z,14.6
2016-09-30T02:55:12.999Z,14.71
2016-09-30T02:56:12.965Z,14.64
2016-09-30T02:57:13.012Z,14.69
2016-09-30T02:58:12.913Z,14.69
2016-09-30T02:59:12.957Z,14.66
2016-09-30T03:00:13.093Z,14.67
2016-09-30T03:01:13.017Z,14.7
2016-09-30T03:02:12.992Z,14.74
2016-09-30T03:03:12.954Z,14.8
2016-09-30T03:04:12.933Z,14.7
2016-09-30T03:05:12.966Z,14.66
2016-09-30T03:06:12.995Z,14.63
2016-09-30T03:07:12.974Z,14.69
2016-09-30T03:08:12.927Z,14.64
2016-09-30T03:09:12.951Z,14.7
2016-09-30T03:10:13.056Z,14.59
2016-09-30T03:11:13.023Z,14.61
2016-09-30T03:12:12.888Z,14.63
2016-09-30T03:13:12.956Z,14.69
2016-09-30T03:14:12.955Z,14.7
2016-09-30T03:15:12.953Z,14.7
2016-09-30T03:16:13.153Z,14.67
2016-09-30T03:17:12.941Z,14.59
2016-09-30T03:18:12.970Z,14.64
2016-09-30T03:19:13.055Z,14.64
2016-09-30T03:20:12.896Z,14.61
2016-09-30T03:21:13.095Z,14.64
2016-09-30T03:22:13.021Z,14.64
2016-09-30T03:23:12.988Z,14.57
2016-09-30T03:24:12.898Z,14.57
2016-09-30T03:25:12.980Z,14.69
2016-09-30T03:26:12.995Z,14.64
2016-09-30T03:27:13.036Z,14.56
2016-09-30T03:28:12.906Z,14.63
2016-09-30T03:29:13.005Z,14.6
2016-09-30T03:30:13.053Z,14.69
2016-09-30T03:31:12.997Z,14.7
2016-09-30T03:32:13.136Z,14.67
2016-09-30T03:33:12.926Z,14.63
2016-09-30T03:34:13.004Z,14.63
2016-09-30T03:35:13.094Z,14.59
2016-09-30T03:36:13.015Z,14.64
2016-09-30T03:37:13.055Z,14.63
2016-09-30T03:38:13.054Z,14.75
2016-09-30T03:39:13.063Z,14.57
2016-09-30T03:40:13.076Z,14.64
2016-09-30T03:41:13.043Z,14.66
2016-09-30T03:42:13.106Z,14.66
2016-09-30T03:43:13.032Z,14.67
2016-09-30T03:44:12.972Z,14.59
2016-09-30T03:45:13.027Z,14.56
2016-09-30T03:46:13.006Z,14.61
2016-09-30T03:47:13.045Z,14.59
2016-09-30T03:48:13.255Z,14.57
2016-09-30T03:49:13.054Z,14.56
2016-09-30T03:50:13.145Z,14.53
2016-09-30T03:51:13.095Z,14.57
2016-09-30T03:52:13.078Z,14.56
2016-09-30T03:53:13.137Z,14.51
2016-09-30T03:54:13.121Z,14.6
2016-09-30T03:55:13.068Z,14.57
2016-09-30T03:56:13.156Z,14.53
2016-09-30T03:57:13.043Z,14.64
2016-09-30T03:58:13.113Z,14.6
2016-09-30T03:59:13.041Z,14.53
2016-09-30T04:00:13.080Z,14.53
2016-09-30T04:01:13.096Z,14.61
2016-09-30T04:02:13.168Z,14.59
2016-09-30T04:03:13.139Z,14.52
2016-09-30T04:04:13.250Z,14.46
2016-09-30T04:05:13.097Z,14.56
2016-09-30T04:06:13.194Z,14.56
2016-09-30T04:07:13.175Z,14.46
2016-09-30T04:08:13.031Z,14.52
2016-09-30T04:09:13.185Z,14.56
2016-09-30T04:10:13.104Z,14.52
2016-09-30T04:11:13.073Z,14.53
2016-09-30T04:12:13.329Z,14.52
2016-09-30T04:13:13.122Z,14.45
2016-09-30T04:14:13.054Z,14.6
2016-09-30T04:15:13.133Z,14.39
2016-09-30T04:16:13.189Z,14.56
2016-09-30T04:17:13.142Z,14.53
2016-09-30T04:18:13.087Z,14.46
2016-09-30T04:19:13.125Z,14.52
2016-09-30T04:20:13.422Z,14.46
2016-09-30T04:21:13.068Z,14.46
2016-09-30T04:22:13.127Z,14.44
2016-09-30T04:23:13.202Z,14.45
2016-09-30T04:24:13.084Z,14.53
2016-09-30T04:25:13.191Z,14.44
2016-09-30T04:26:13.150Z,14.45
2016-09-30T04:27:13.180Z,14.49
2016-09-30T04:28:13.162Z,14.51
2016-09-30T04:29:13.169Z,14.45
2016-09-30T04:30:13.202Z,14.42
2016-09-30T04:31:13.162Z,14.46
2016-09-30T04:32:13.256Z,14.39
2016-09-30T04:33:13.220Z,14.46
2016-09-30T04:34:13.267Z,14.36
2016-09-30T04:35:13.257Z,14.44
2016-09-30T04:36:13.434Z,14.42
2016-09-30T04:37:13.252Z,14.38
2016-09-30T04:38:13.192Z,14.46
2016-09-30T04:39:13.245Z,14.44
2016-09-30T04:40:13.273Z,14.48
2016-09-30T04:41:13.247Z,14.52
2016-09-30T04:42:13.245Z,14.42
2016-09-30T04:43:13.254Z,14.44
2016-09-30T04:44:13.177Z,14.39
2016-09-30T04:45:13.282Z,14.44
2016-09-30T04:46:13.246Z,14.41
2016-09-30T04:47:13.237Z,14.38
2016-09-30T04:48:13.212Z,14.39
2016-09-30T04:49:13.269Z,14.48
2016-09-30T04:50:13.307Z,14.41
2016-09-30T04:51:13.269Z,14.39
2016-09-30T04:52:13.447Z,14.42
2016-09-30T04:53:13.168Z,14.39
2016-09-30T04:54:13.271Z,14.45
2016-09-30T04:55:13.285Z,14.45
2016-09-30T04:56:13.328Z,14.39
2016-09-30T04:57:13.402Z,14.3
2016-09-30T04:58:13.197Z,14.42
2016-09-30T04:59:13.249Z,14.33
2016-09-30T05:00:13.253Z,14.28
2016-09-30T05:01:13.268Z,14.39
2016-09-30T05:02:13.345Z,14.45
2016-09-30T05:03:13.345Z,14.38
2016-09-30T05:04:13.241Z,14.46
2016-09-30T05:05:13.348Z,14.39
2016-09-30T05:06:13.256Z,14.36
2016-09-30T05:07:13.271Z,14.39
2016-09-30T05:08:13.492Z,14.52
2016-09-30T05:09:13.308Z,14.39
2016-09-30T05:10:13.247Z,14.44
2016-09-30T05:11:13.336Z,14.51
2016-09-30T05:12:13.209Z,14.41
2016-09-30T05:13:13.800Z,14.48
2016-09-30T05:14:13.225Z,14.56
2016-09-30T05:15:13.301Z,14.51
2016-09-30T05:16:13.369Z,14.46
2016-09-30T05:17:13.238Z,14.53
2016-09-30T05:18:13.397Z,14.57
2016-09-30T05:19:13.236Z,14.59
2016-09-30T05:20:13.311Z,14.52
2016-09-30T05:21:13.332Z,14.57
2016-09-30T05:22:13.312Z,14.67
2016-09-30T05:23:13.316Z,14.59
2016-09-30T05:24:13.448Z,14.56
2016-09-30T05:25:13.337Z,14.56
2016-09-30T05:26:13.318Z,14.61
2016-09-30T05:27:13.295Z,14.6
2016-09-30T05:28:13.396Z,14.71
2016-09-30T05:29:13.449Z,14.74
2016-09-30T05:30:13.393Z,14.69
2016-09-30T05:31:13.326Z,14.77
2016-09-30T05:32:13.359Z,14.75
2016-09-30T05:33:13.348Z,14.74
2016-09-30T05:34:13.381Z,14.71
2016-09-30T05:35:13.329Z,14.75
2016-09-30T05:36:13.362Z,14.71
2016-09-30T05:37:13.365Z,14.75
2016-09-30T05:38:13.453Z,14.79
2016-09-30T05:39:13.388Z,14.77
2016-09-30T05:40:13.619Z,14.77
2016-09-30T05:41:13.339Z,14.87
2016-09-30T05:42:13.451Z,14.86
2016-09-30T05:43:13.414Z,14.74
2016-09-30T05:44:13.435Z,14.85
2016-09-30T05:45:13.431Z,14.85
2016-09-30T05:46:13.441Z,14.69
2016-09-30T05:47:13.467Z,14.85
2016-09-30T05:48:13.457Z,14.8
2016-09-30T05:49:13.431Z,14.77
2016-09-30T05:50:13.399Z,14.8
2016-09-30T05:51:13.425Z,14.83
2016-09-30T05:52:13.395Z,14.75
2016-09-30T05:53:13.416Z,14.75
2016-09-30T05:54:13.393Z,14.89
2016-09-30T05:55:13.413Z,14.85
2016-09-30T05:56:13.552Z,14.74
2016-09-30T05:57:13.383Z,14.75
2016-09-30T05:58:13.443Z,14.83
2016-09-30T05:59:13.539Z,14.87
2016-09-30T06:00:13.451Z,14.95
2016-09-30T06:01:13.398Z,14.83
2016-09-30T06:02:13.465Z,14.87
2016-09-30T06:03:13.480Z,14.85
2016-09-30T06:04:13.532Z,14.86
2016-09-30T06:05:13.437Z,14.85
2016-09-30T06:06:13.474Z,14.77
2016-09-30T06:07:13.449Z,14.85
2016-09-30T06:08:13.475Z,14.79
2016-09-30T06:09:13.455Z,14.85
2016-09-30T06:10:13.528Z,14.82
2016-09-30T06:11:13.452Z,14.85
2016-09-30T06:12:13.652Z,14.77
2016-09-30T06:13:13.387Z,14.82
2016-09-30T06:14:13.491Z,14.74
2016-09-30T06:15:13.471Z,14.77
2016-09-30T06:16:13.529Z,14.77
2016-09-30T06:17:13.558Z,14.85
2016-09-30T06:18:13.537Z,14.8
2016-09-30T06:19:13.433Z,14.9
2016-09-30T06:20:13.559Z,14.9
2016-09-30T06:21:13.570Z,14.86
2016-09-30T06:22:13.599Z,14.87
2016-09-30T06:23:13.474Z,14.89
2016-09-30T06:24:13.550Z,14.86
2016-09-30T06:25:13.556Z,14.86
2016-09-30T06:26:13.587Z,14.8
2016-09-30T06:27:13.573Z,14.82
2016-09-30T06:28:13.711Z,14.86
2016-09-30T06:29:14.099Z,14.83
2016-09-30T06:30:14.138Z,14.82
2016-09-30T06:31:13.585Z,14.9
2016-09-30T06:32:13.557Z,14.9
2016-09-30T06:33:13.804Z,14.9
2016-09-30T06:34:13.607Z,14.93
2016-09-30T06:35:13.531Z,14.93
2016-09-30T06:36:13.566Z,14.87
2016-09-30T06:37:13.535Z,14.86
2016-09-30T06:38:13.471Z,14.77
2016-09-30T06:39:13.619Z,14.83
2016-09-30T06:40:13.607Z,14.9
2016-09-30T06:41:13.552Z,14.82
2016-09-30T06:42:14.173Z,14.83
2016-09-30T06:43:14.204Z,14.74
2016-09-30T06:44:13.545Z,14.83
2016-09-30T06:45:13.607Z,14.85
2016-09-30T06:46:13.718Z,14.74
2016-09-30T06:47:13.562Z,14.93
2016-09-30T06:48:13.482Z,14.87
2016-09-30T06:49:13.622Z,14.79
2016-09-30T06:50:13.588Z,14.82
2016-09-30T06:51:15.357Z,14.74
2016-09-30T06:52:13.595Z,14.87
2016-09-30T06:53:13.499Z,14.89
2016-09-30T06:54:13.650Z,14.85
2016-09-30T06:55:13.608Z,14.89
2016-09-30T06:56:13.592Z,14.82
2016-09-30T06:57:14.623Z,14.75
2016-09-30T06:58:13.622Z,14.82
2016-09-30T06:59:13.561Z,14.79
2016-09-30T07:00:13.594Z,14.87
2016-09-30T07:01:13.571Z,14.83
2016-09-30T07:02:13.633Z,14.86
2016-09-30T07:03:13.698Z,14.77
2016-09-30T07:04:13.697Z,14.9
2016-09-30T07:05:13.642Z,14.93
2016-09-30T07:06:13.678Z,14.87
2016-09-30T07:07:13.665Z,14.85
2016-09-30T07:08:13.699Z,14.9
2016-09-30T07:09:13.638Z,14.87
2016-09-30T07:10:13.627Z,14.95
2016-09-30T07:11:13.626Z,14.94
2016-09-30T07:12:13.715Z,14.94
2016-09-30T07:13:13.591Z,14.95
2016-09-30T07:14:13.647Z,14.95
2016-09-30T07:15:13.598Z,14.9
2016-09-30T07:16:13.721Z,14.97
2016-09-30T07:17:13.628Z,14.95
2016-09-30T07:18:13.721Z,14.95
2016-09-30T07:19:13.611Z,14.95
2016-09-30T07:20:13.633Z,14.87
2016-09-30T07:21:13.690Z,14.9
2016-09-30T07:22:13.667Z,15
2016-09-30T07:23:13.720Z,14.97
2016-09-30T07:24:13.634Z,15.01
2016-09-30T07:25:13.705Z,15.01
2016-09-30T07:26:13.726Z,14.97
2016-09-30T07:27:13.734Z,15.04
2016-09-30T07:28:13.854Z,15.12
2016-09-30T07:29:13.779Z,15.05
2016-09-30T07:30:13.705Z,15.07
2016-09-30T07:31:13.690Z,15.07
2016-09-30T07:32:13.800Z,14.98
2016-09-30T07:33:13.684Z,15.01
2016-09-30T07:34:13.804Z,15.05
2016-09-30T07:35:13.879Z,15.04
2016-09-30T07:36:13.681Z,15.13
2016-09-30T07:37:13.861Z,15.12
2016-09-30T07:38:13.784Z,15.07
2016-09-30T07:39:13.757Z,15.08
2016-09-30T07:40:13.770Z,15.12
2016-09-30T07:41:13.789Z,15.1
2016-09-30T07:42:13.804Z,15.02
2016-09-30T07:43:13.705Z,15.15
2016-09-30T07:44:13.679Z,15.07
2016-09-30T07:45:13.817Z,15.08
2016-09-30T07:46:13.812Z,15.19
2016-09-30T07:47:13.694Z,15.12
2016-09-30T07:48:13.735Z,15.15
2016-09-30T07:49:13.720Z,15.07
2016-09-30T07:50:13.816Z,15.15
2016-09-30T07:51:13.839Z,15.16
2016-09-30T07:52:13.787Z,15.19
2016-09-30T07:53:14.077Z,15.2
2016-09-30T07:54:15.259Z,15.18
2016-09-30T07:55:14.045Z,15.15
2016-09-30T07:56:13.910Z,15.12
2016-09-30T07:57:15.056Z,15.1
2016-09-30T07:58:13.922Z,15.08
2016-09-30T07:59:13.939Z,15.07
2016-09-30T08:00:13.805Z,15.19
2016-09-30T08:01:13.798Z,15.19
2016-09-30T08:02:13.806Z,15.27
2016-09-30T08:03:13.812Z,15.22
2016-09-30T08:04:13.837Z,15.16
2016-09-30T08:05:13.836Z,15.2
2016-09-30T08:06:13.821Z,15.16
2016-09-30T08:07:13.839Z,15.15
2016-09-30T08:08:13.705Z,15.19
2016-09-30T08:09:14.075Z,15.18
2016-09-30T08:10:13.914Z,15.23
2016-09-30T08:11:13.949Z,15.12
2016-09-30T08:12:13.839Z,15.16
2016-09-30T08:13:13.906Z,15.23
2016-09-30T08:14:14.105Z,15.19
2016-09-30T08:15:13.861Z,15.15
2016-09-30T08:16:13.859Z,15.26
2016-09-30T08:17:13.768Z,15.22
2016-09-30T08:18:13.801Z,15.22
2016-09-30T08:19:13.902Z,15.33
2016-09-30T08:20:13.987Z,15.34
2016-09-30T08:21:13.842Z,15.43
2016-09-30T08:22:13.917Z,15.43
2016-09-30T08:23:13.813Z,15.52
2016-09-30T08:24:14.022Z,15.63
2016-09-30T08:25:14.107Z,15.86
2016-09-30T08:26:13.906Z,15.77
2016-09-30T08:27:13.886Z,15.75
2016-09-30T08:28:13.863Z,15.65
2016-09-30T08:29:13.996Z,15.59
2016-09-30T08:30:14.000Z,15.53
2016-09-30T08:31:13.841Z,15.58
2016-09-30T08:32:13.897Z,15.51
2016-09-30T08:33:13.881Z,15.59
2016-09-30T08:34:13.905Z,15.8
2016-09-30T08:35:17.359Z,15.77
2016-09-30T08:36:14.583Z,15.93
2016-09-30T08:37:13.952Z,15.8
2016-09-30T08:38:13.864Z,15.83
2016-09-30T08:39:14.126Z,15.96
2016-09-30T08:40:13.891Z,16.02
2016-09-30T08:41:13.875Z,16.11
2016-09-30T08:42:13.936Z,16.22
2016-09-30T08:43:13.894Z,16.26
2016-09-30T08:44:13.848Z,16.36
2016-09-30T08:45:13.960Z,16.36
2016-09-30T08:46:14.198Z,16.37
2016-09-30T08:47:13.928Z,16.42
2016-09-30T08:48:13.892Z,16.51
2016-09-30T08:49:13.976Z,16.22
2016-09-30T08:50:13.897Z,16.27
2016-09-30T08:51:14.337Z,16.26
2016-09-30T08:52:13.911Z,16.39
2016-09-30T08:53:13.855Z,16.21
2016-09-30T08:54:13.937Z,16.32
2016-09-30T08:55:13.880Z,16.32
2016-09-30T08:56:13.931Z,16.39
2016-09-30T08:57:13.893Z,16.32
2016-09-30T08:58:13.976Z,16.34
2016-09-30T08:59:13.964Z,16.47
2016-09-30T09:00:13.853Z,16.48
2016-09-30T09:01:13.901Z,16.47
2016-09-30T09:02:13.993Z,16.37
2016-09-30T09:03:13.942Z,16.59
2016-09-30T09:04:14.032Z,16.73
2016-09-30T09:05:13.949Z,16.7
2016-09-30T09:06:13.949Z,16.44
2016-09-30T09:07:14.153Z,16.36
2016-09-30T09:08:13.950Z,16.39
2016-09-30T09:09:14.172Z,16.26
2016-09-30T09:10:14.074Z,16.4
2016-09-30T09:11:14.886Z,16.39
2016-09-30T09:12:14.044Z,16.18
2016-09-30T09:13:14.302Z,16.18
2016-09-30T09:14:14.014Z,16.27
2016-09-30T09:15:14.001Z,16.25
2016-09-30T09:16:14.038Z,16.39
2016-09-30T09:17:13.999Z,16.58
2016-09-30T09:18:14.349Z,16.57
2016-09-30T09:19:14.274Z,16.65
2016-09-30T09:20:13.973Z,16.77
2016-09-30T09:21:13.955Z,16.88
2016-09-30T09:22:13.962Z,16.97
2016-09-30T09:23:14.595Z,17.06
2016-09-30T09:24:14.725Z,17.12
2016-09-30T09:25:14.061Z,17.36
2016-09-30T09:26:14.021Z,17.43
2016-09-30T09:27:14.016Z,17.24
2016-09-30T09:28:14.165Z,17.54
2016-09-30T09:29:16.749Z,17.73
2016-09-30T09:30:14.150Z,17.52
2016-09-30T09:31:14.189Z,17.38
2016-09-30T09:32:14.020Z,17.39
2016-09-30T09:33:13.993Z,17.21
2016-09-30T09:34:14.238Z,17.27
2016-09-30T09:35:14.028Z,17.17
2016-09-30T09:36:14.115Z,17.2
2016-09-30T09:37:14.224Z,17.21
2016-09-30T09:38:14.112Z,17.07
2016-09-30T09:39:14.436Z,17.02
2016-09-30T09:40:13.987Z,17.05
2016-09-30T09:41:14.080Z,17.36
2016-09-30T09:42:14.085Z,17.24
2016-09-30T09:43:14.173Z,16.99
2016-09-30T09:44:14.092Z,17.13
2016-09-30T09:45:14.060Z,17.07
2016-09-30T09:46:14.175Z,17.07
2016-09-30T09:47:14.214Z,17.05
2016-09-30T09:48:14.138Z,17.1
2016-09-30T09:49:14.068Z,17.2
2016-09-30T09:50:14.021Z,17.3
2016-09-30T09:51:14.220Z,17.24
2016-09-30T09:52:14.137Z,17.45
2016-09-30T09:53:14.080Z,17.42
2016-09-30T09:54:14.070Z,17.27
2016-09-30T09:55:14.710Z,17.18
2016-09-30T09:56:14.106Z,17.09
2016-09-30T09:57:14.153Z,17.12
2016-09-30T09:58:14.053Z,17.05
2016-09-30T09:59:14.098Z,17.05
2016-09-30T10:00:14.167Z,17.03
2016-09-30T10:01:14.150Z,17.18
2016-09-30T10:02:14.191Z,17.13
2016-09-30T10:03:14.110Z,17
2016-09-30T10:04:14.156Z,17.06
2016-09-30T10:05:14.140Z,17.21
2016-09-30T10:06:14.484Z,17.07
2016-09-30T10:07:14.187Z,17.22
2016-09-30T10:08:14.149Z,17.09
2016-09-30T10:09:14.207Z,17.06
2016-09-30T10:10:14.156Z,17.2
2016-09-30T10:11:15.241Z,17.22
2016-09-30T10:12:14.210Z,17.25
2016-09-30T10:13:14.098Z,17.13
2016-09-30T10:14:14.180Z,17.13
2016-09-30T10:15:14.316Z,17.09
2016-09-30T10:16:14.151Z,17.18
2016-09-30T10:17:14.258Z,17.25
2016-09-30T10:18:14.232Z,17.24
2016-09-30T10:19:14.085Z,17.06
2016-09-30T10:20:14.123Z,17.21
2016-09-30T10:21:14.289Z,17.35
2016-09-30T10:22:14.221Z,17.12
2016-09-30T10:23:14.159Z,17.1
2016-09-30T10:24:14.256Z,17.21
2016-09-30T10:25:14.172Z,17.25
2016-09-30T10:26:14.244Z,17.22
2016-09-30T10:27:14.423Z,17.2
2016-09-30T10:28:14.394Z,17.07
2016-09-30T10:29:14.251Z,17.06
2016-09-30T10:30:14.236Z,17.07
2016-09-30T10:31:14.262Z,17.18
2016-09-30T10:32:14.154Z,17.24
2016-09-30T10:33:14.271Z,17.24
2016-09-30T10:34:14.277Z,17.13
2016-09-30T10:35:14.209Z,17.22
2016-09-30T10:36:14.192Z,17.25
2016-09-30T10:37:14.279Z,17.2
2016-09-30T10:38:14.566Z,17.09
2016-09-30T10:39:14.177Z,17.09
2016-09-30T10:40:14.221Z,17.22
2016-09-30T10:41:14.218Z,17.3
2016-09-30T10:42:14.303Z,17.24
2016-09-30T10:43:14.470Z,17.28
2016-09-30T10:44:14.303Z,17.4
2016-09-30T10:45:14.255Z,17.49
2016-09-30T10:46:14.154Z,17.46
2016-09-30T10:47:14.327Z,17.52
2016-09-30T10:48:14.234Z,17.52
2016-09-30T10:49:14.225Z,17.52
2016-09-30T10:50:14.266Z,17.52
2016-09-30T10:51:14.254Z,17.63
2016-09-30T10:52:14.240Z,17.66
2016-09-30T10:53:14.355Z,17.71
2016-09-30T10:54:14.374Z,17.57
2016-09-30T10:55:14.306Z,17.55
2016-09-30T10:56:14.298Z,17.55
2016-09-30T10:57:14.307Z,17.38
2016-09-30T10:58:14.351Z,17.35
2016-09-30T10:59:14.590Z,17.31
2016-09-30T11:00:14.315Z,17.15
2016-09-30T11:01:14.193Z,17.24
2016-09-30T11:02:14.379Z,17.28
2016-09-30T11:03:14.216Z,17.35
2016-09-30T11:04:14.334Z,17.13
2016-09-30T11:05:14.260Z,17.13
2016-09-30T11:06:14.363Z,17.18
2016-09-30T11:07:14.291Z,17.21
2016-09-30T11:08:14.317Z,17.24
2016-09-30T11:09:14.384Z,17.24
2016-09-30T11:10:14.411Z,17.25
2016-09-30T11:11:14.259Z,17.28
2016-09-30T11:12:14.301Z,17.2
2016-09-30T11:13:14.358Z,17.12
2016-09-30T11:14:14.267Z,17.12
2016-09-30T11:15:14.513Z,17.09
2016-09-30T11:16:14.432Z,17.27
2016-09-30T11:17:14.257Z,17.32
2016-09-30T11:18:14.368Z,17.21
2016-09-30T11:19:14.467Z,17.09
2016-09-30T11:20:14.372Z,17.18
2016-09-30T11:21:14.243Z,17.18
2016-09-30T11:22:14.340Z,17.18
2016-09-30T11:23:14.363Z,17.28
2016-09-30T11:24:14.404Z,17.25
2016-09-30T11:25:14.346Z,17.31
2016-09-30T11:26:14.354Z,17.35
2016-09-30T11:27:14.421Z,17.39
2016-09-30T11:28:14.397Z,17.5
2016-09-30T11:29:14.367Z,17.39
2016-09-30T11:30:14.421Z,17.46
2016-09-30T11:31:14.578Z,17.5
2016-09-30T11:32:14.460Z,17.63
2016-09-30T11:33:14.407Z,17.74
2016-09-30T11:34:14.441Z,17.6
2016-09-30T11:35:14.423Z,17.6
2016-09-30T11:36:14.428Z,17.73
2016-09-30T11:37:14.449Z,17.79
2016-09-30T11:38:14.343Z,17.76
2016-09-30T11:39:14.474Z,17.63
2016-09-30T11:40:14.393Z,17.9
2016-09-30T11:41:14.491Z,17.84
2016-09-30T11:42:15.490Z,17.84
2016-09-30T11:43:14.342Z,17.94
2016-09-30T11:44:14.433Z,17.98
2016-09-30T11:45:14.531Z,18.08
2016-09-30T11:46:14.392Z,18.02
2016-09-30T11:47:14.808Z,17.9
2016-09-30T11:48:14.454Z,17.94
2016-09-30T11:49:14.388Z,17.99
2016-09-30T11:50:14.504Z,18.06
2016-09-30T11:51:14.455Z,18.03
2016-09-30T11:52:14.464Z,17.95
2016-09-30T11:53:21.174Z,17.98
2016-09-30T11:54:17.828Z,17.84
2016-09-30T11:55:21.329Z,17.98
2016-09-30T11:56:21.154Z,18.14
2016-09-30T11:57:22.418Z,18.08
2016-09-30T11:58:14.501Z,18.03
2016-09-30T11:59:14.447Z,18.1
2016-09-30T12:00:14.560Z,18.03
2016-09-30T12:01:14.515Z,17.94
2016-09-30T12:02:14.538Z,17.81
2016-09-30T12:03:14.671Z,17.66
2016-09-30T12:04:14.510Z,17.54
2016-09-30T12:05:14.437Z,17.52
2016-09-30T12:06:14.539Z,17.58
2016-09-30T12:07:14.520Z,17.69
2016-09-30T12:08:14.789Z,17.54
2016-09-30T12:09:14.440Z,17.57
2016-09-30T12:10:14.491Z,17.49
2016-09-30T12:11:14.580Z,17.47
2016-09-30T12:12:14.556Z,17.57
2016-09-30T12:13:14.485Z,17.66
2016-09-30T12:14:14.478Z,17.74
2016-09-30T12:15:14.568Z,17.83
2016-09-30T12:16:14.496Z,17.81
2016-09-30T12:17:14.485Z,17.98
2016-09-30T12:18:14.502Z,18.2
2016-09-30T12:19:14.853Z,18.34
2016-09-30T12:20:14.425Z,18.21
2016-09-30T12:21:14.525Z,18.27
2016-09-30T12:22:14.626Z,18.45
2016-09-30T12:23:14.533Z,18.44
2016-09-30T12:24:15.527Z,18.32
2016-09-30T12:25:14.510Z,18.1
2016-09-30T12:26:14.612Z,18.42
2016-09-30T12:27:14.489Z,18.65
2016-09-30T12:28:14.634Z,18.56
2016-09-30T12:29:14.544Z,18.66
2016-09-30T12:30:14.548Z,18.79
2016-09-30T12:31:14.602Z,18.86
2016-09-30T12:32:14.556Z,19.24
2016-09-30T12:33:14.470Z,19.45
2016-09-30T12:34:14.514Z,19.79
2016-09-30T12:35:14.975Z,19.64
2016-09-30T12:36:14.490Z,19.5
2016-09-30T12:37:14.603Z,19.42
2016-09-30T12:38:14.564Z,19.19
2016-09-30T12:39:14.650Z,19.5
2016-09-30T12:40:14.947Z,19.55
2016-09-30T12:41:14.627Z,19.53
2016-09-30T12:42:14.544Z,19.55
2016-09-30T12:43:14.553Z,19.34
2016-09-30T12:44:14.729Z,19.43
2016-09-30T12:45:14.594Z,19.5
2016-09-30T12:46:14.634Z,20
2016-09-30T12:47:14.693Z,20.11
2016-09-30T12:48:14.680Z,20.04
2016-09-30T12:49:14.630Z,19.9
2016-09-30T12:50:14.655Z,19.83
2016-09-30T12:51:14.716Z,19.49
2016-09-30T12:52:14.672Z,19.55
2016-09-30T12:53:14.627Z,19.47
2016-09-30T12:54:14.621Z,19.67
2016-09-30T12:55:14.574Z,19.71